createdAt,value
2019-02-17T00:01:59.222Z,44.90
2019-02-17T00:06:03.792Z,44.80
2019-02-17T00:10:08.511Z,44.30
2019-02-17T00:14:13.070Z,44.70
2019-02-17T00:18:17.607Z,45.30
2019-02-17T00:22:22.400Z,45.40
2019-02-17T00:26:26.985Z,45.30
2019-02-17T00:30:31.550Z,45.50
2019-02-17T00:34:36.097Z,45.50
2019-02-17T00:38:40.652Z,46.00
2019-02-17T00:42:45.385Z,46.50
2019-02-17T00:46:49.928Z,46.40
2019-02-17T00:50:54.728Z,46.50
2019-02-17T00:54:59.311Z,47.60
2019-02-17T00:59:10.113Z,47.00
2019-02-17T01:03:10.092Z,46.70
2019-02-17T01:07:15.852Z,47.30
2019-02-17T01:11:20.473Z,48.80
2019-02-17T01:15:25.056Z,48.30
2019-02-17T01:19:29.612Z,48.60
2019-02-17T01:23:34.424Z,49.10
2019-02-17T01:27:39.002Z,49.10
2019-02-17T01:31:43.786Z,49.10
2019-02-17T01:35:48.400Z,49.10
2019-02-17T01:39:54.085Z,49.10
2019-02-17T01:43:58.618Z,49.60
2019-02-17T01:48:03.285Z,48.70
2019-02-17T01:52:09.082Z,49.10
2019-02-17T01:56:13.933Z,49.10
2019-02-17T02:00:19.100Z,49.30
2019-02-17T02:04:23.702Z,49.50
2019-02-17T02:08:28.256Z,49.40
2019-02-17T02:12:33.044Z,49.80
2019-02-17T02:16:37.596Z,50.30
2019-02-17T02:20:42.388Z,50.50
2019-02-17T02:24:46.978Z,50.20
2019-02-17T02:28:51.529Z,50.30
2019-02-17T02:32:56.317Z,50.40
2019-02-17T02:37:00.882Z,50.50
2019-02-17T02:41:05.643Z,50.40
2019-02-17T02:45:10.234Z,50.40
2019-02-17T02:49:14.776Z,50.50
2019-02-17T02:53:19.615Z,50.70
2019-02-17T02:57:24.262Z,51.30
2019-02-17T03:01:28.983Z,51.60
2019-02-17T03:05:36.440Z,51.80
2019-02-17T03:09:41.061Z,51.80
2019-02-17T03:13:45.635Z,52.00
2019-02-17T03:17:50.185Z,52.40
2019-02-17T03:21:54.976Z,52.50
2019-02-17T03:25:59.532Z,52.60
2019-02-17T03:30:06.200Z,53.00
2019-02-17T03:34:11.039Z,52.70
2019-02-17T03:38:15.650Z,52.80
2019-02-17T03:42:20.396Z,52.80
2019-02-17T03:46:24.986Z,52.90
2019-02-17T03:50:29.810Z,53.20
2019-02-17T03:54:34.350Z,53.40
2019-02-17T03:58:38.916Z,53.60
2019-02-17T04:02:43.707Z,53.50
2019-02-17T04:06:48.276Z,53.60
2019-02-17T04:10:53.077Z,53.60
2019-02-17T04:14:57.926Z,53.70
2019-02-17T04:19:02.596Z,53.80
2019-02-17T04:23:07.254Z,53.60
2019-02-17T04:27:13.974Z,53.40
2019-02-17T04:31:18.778Z,53.60
2019-02-17T04:35:23.336Z,54.10
2019-02-17T04:39:28.282Z,54.00
2019-02-17T04:43:34.659Z,54.30
2019-02-17T04:47:39.238Z,54.10
2019-02-17T04:51:43.909Z,53.90
2019-02-17T04:55:48.464Z,54.00
2019-02-17T04:59:53.319Z,53.90
2019-02-17T05:03:57.867Z,53.90
2019-02-17T05:08:02.411Z,53.60
2019-02-17T05:12:08.143Z,54.20
2019-02-17T05:16:12.711Z,54.90
2019-02-17T05:20:18.377Z,55.20
2019-02-17T05:24:22.973Z,55.80
2019-02-17T05:28:27.541Z,55.80
2019-02-17T05:32:32.360Z,55.30
2019-02-17T05:36:37.179Z,54.40
2019-02-17T05:40:41.994Z,55.10
2019-02-17T05:44:46.544Z,55.40
2019-02-17T05:48:51.101Z,54.80
2019-02-17T05:52:55.909Z,54.90
2019-02-17T05:57:00.467Z,55.00
2019-02-17T06:01:07.355Z,54.20
2019-02-17T06:05:11.765Z,53.70
2019-02-17T06:09:16.319Z,53.80
2019-02-17T06:13:20.923Z,53.90
2019-02-17T06:17:25.608Z,54.40
2019-02-17T06:21:30.400Z,53.90
2019-02-17T06:25:34.989Z,54.00
2019-02-17T06:29:39.792Z,54.20
2019-02-17T06:33:44.357Z,52.90
2019-02-17T06:37:49.165Z,53.60
2019-02-17T06:41:53.989Z,52.60
2019-02-17T06:45:58.909Z,53.40
2019-02-17T06:50:03.800Z,53.00
2019-02-17T06:54:08.355Z,52.50
2019-02-17T06:58:12.903Z,53.00
2019-02-17T07:02:17.661Z,52.70
2019-02-17T07:06:41.268Z,52.40
2019-02-17T07:10:46.022Z,52.30
2019-02-17T07:14:50.578Z,51.60
2019-02-17T07:18:55.124Z,51.10
2019-02-17T07:22:59.964Z,50.30
2019-02-17T07:27:04.527Z,51.10
2019-02-17T07:31:09.356Z,51.80
2019-02-17T07:35:13.968Z,51.20
2019-02-17T07:39:18.517Z,50.90
2019-02-17T07:43:23.084Z,50.40
2019-02-17T07:47:27.645Z,51.10
2019-02-17T07:51:33.513Z,52.10
2019-02-17T07:55:39.345Z,52.00
2019-02-17T07:59:44.104Z,51.50
2019-02-17T08:03:48.668Z,50.20
2019-02-17T08:07:53.224Z,50.00
2019-02-17T08:11:58.877Z,49.70
2019-02-17T08:16:03.603Z,48.50
2019-02-17T08:20:09.095Z,48.30
2019-02-17T08:24:15.983Z,47.80
2019-02-17T08:28:20.786Z,47.20
2019-02-17T08:32:25.709Z,47.30
2019-02-17T08:36:30.300Z,47.20
2019-02-17T08:40:34.973Z,46.50
2019-02-17T08:44:39.880Z,45.60
2019-02-17T08:48:44.503Z,45.10
2019-02-17T08:52:49.219Z,44.00
2019-02-17T08:56:53.833Z,42.90
2019-02-17T09:00:59.170Z,42.60
2019-02-17T09:05:03.723Z,42.10
2019-02-17T09:09:08.288Z,41.60
2019-02-17T09:13:13.087Z,41.10
2019-02-17T09:17:17.660Z,39.90
2019-02-17T09:21:22.444Z,39.10
2019-02-17T09:25:26.997Z,38.90
2019-02-17T09:29:31.572Z,38.00
2019-02-17T09:33:36.118Z,37.50
2019-02-17T09:37:40.680Z,37.10
2019-02-17T09:41:45.427Z,36.90
2019-02-17T09:45:50.003Z,36.00
2019-02-17T09:49:54.599Z,35.20
2019-02-17T09:53:59.178Z,33.90
2019-02-17T09:58:03.711Z,33.60
2019-02-17T10:02:08.394Z,34.50
2019-02-17T10:06:12.956Z,33.20
2019-02-17T10:10:17.797Z,34.00
2019-02-17T10:14:22.366Z,34.30
2019-02-17T10:18:26.933Z,34.10
2019-02-17T10:22:32.318Z,33.80
2019-02-17T10:26:36.914Z,33.20
2019-02-17T10:30:41.668Z,32.40
2019-02-17T10:34:46.211Z,32.20
2019-02-17T10:38:50.798Z,32.80
2019-02-17T10:42:56.278Z,32.70
2019-02-17T10:47:00.836Z,32.20
2019-02-17T10:51:05.400Z,32.00
2019-02-17T10:55:10.779Z,32.00
2019-02-17T10:59:15.428Z,31.20
2019-02-17T11:03:20.440Z,31.20
2019-02-17T11:07:25.005Z,31.20
2019-02-17T11:11:29.845Z,30.10
2019-02-17T11:15:36.975Z,29.60
2019-02-17T11:19:42.088Z,29.30
2019-02-17T11:23:49.422Z,27.90
2019-02-17T11:27:54.097Z,28.90
2019-02-17T11:31:59.378Z,29.00
2019-02-17T11:36:04.232Z,27.30
2019-02-17T11:40:10.320Z,26.80
2019-02-17T11:44:15.159Z,26.70
2019-02-17T11:48:20.320Z,26.50
2019-02-17T11:52:24.900Z,26.50
2019-02-17T11:56:29.468Z,26.00
2019-02-17T12:00:34.297Z,26.60
2019-02-17T12:04:38.937Z,26.30
2019-02-17T12:08:47.158Z,25.60
2019-02-17T12:12:52.074Z,24.80
2019-02-17T12:16:56.666Z,24.80
2019-02-17T12:21:23.886Z,25.00
2019-02-17T12:25:36.848Z,24.20
2019-02-17T12:29:44.721Z,24.80
2019-02-17T12:33:49.543Z,23.80
2019-02-17T12:37:54.121Z,24.00
2019-02-17T12:41:58.951Z,24.00
2019-02-17T12:46:03.658Z,23.70
2019-02-17T12:50:09.841Z,22.90
2019-02-17T12:54:14.399Z,22.80
2019-02-17T12:58:29.397Z,22.60
2019-02-17T13:02:25.500Z,22.10
2019-02-17T13:06:30.153Z,21.40
2019-02-17T13:10:34.981Z,20.00
2019-02-17T13:14:39.524Z,18.60
2019-02-17T13:18:44.079Z,17.30
2019-02-17T13:22:48.863Z,15.70
2019-02-17T13:26:53.453Z,14.70
2019-02-17T13:30:58.330Z,13.60
2019-02-17T13:35:02.964Z,14.60
2019-02-17T13:39:07.732Z,13.80
2019-02-17T13:43:12.650Z,13.30
2019-02-17T13:47:17.204Z,13.10
2019-02-17T13:51:21.868Z,12.10
2019-02-17T13:55:26.440Z,12.50
2019-02-17T13:59:31.209Z,12.30
2019-02-17T14:03:35.773Z,12.60
2019-02-17T14:07:40.345Z,13.00
2019-02-17T14:11:45.120Z,12.50
2019-02-17T14:15:49.708Z,12.60
2019-02-17T14:19:54.487Z,12.50
2019-02-17T14:23:59.060Z,12.60
2019-02-17T14:28:03.636Z,12.50
2019-02-17T14:32:08.440Z,12.40
2019-02-17T14:36:13.067Z,12.40
2019-02-17T14:40:17.787Z,11.80
2019-02-17T14:44:22.473Z,11.60
2019-02-17T14:48:27.077Z,11.50
2019-02-17T14:52:31.708Z,11.50
2019-02-17T14:56:36.276Z,11.80
2019-02-17T15:00:41.074Z,12.10
2019-02-17T15:04:45.720Z,13.00
2019-02-17T15:08:50.351Z,13.20
2019-02-17T15:12:58.542Z,14.20
2019-02-17T15:17:05.594Z,14.00
2019-02-17T15:21:10.499Z,14.40
2019-02-17T15:25:15.071Z,15.20
2019-02-17T15:29:19.965Z,15.60
2019-02-17T15:33:24.588Z,16.10
2019-02-17T15:37:29.180Z,16.80
2019-02-17T15:41:33.955Z,17.10
2019-02-17T15:45:38.536Z,18.00
2019-02-17T15:49:43.352Z,18.00
2019-02-17T15:53:48.038Z,18.40
2019-02-17T15:57:52.751Z,18.70
2019-02-17T16:01:57.640Z,18.70
2019-02-17T16:06:02.802Z,19.40
2019-02-17T16:10:08.608Z,19.10
2019-02-17T16:14:13.172Z,19.50
2019-02-17T16:18:17.745Z,19.80
2019-02-17T16:22:22.349Z,20.30
2019-02-17T16:26:26.936Z,21.20
2019-02-17T16:30:31.711Z,21.70
2019-02-17T16:34:38.680Z,22.50
2019-02-17T16:38:42.657Z,23.00
2019-02-17T16:42:47.513Z,23.80
2019-02-17T16:46:52.076Z,24.20
2019-02-17T16:50:57.287Z,24.40
2019-02-17T16:55:01.850Z,24.50
2019-02-17T16:59:06.499Z,25.10
2019-02-17T17:03:11.689Z,25.50
2019-02-17T17:07:16.253Z,26.20
2019-02-17T17:11:21.232Z,26.50
2019-02-17T17:15:25.821Z,27.00
2019-02-17T17:19:30.395Z,26.90
2019-02-17T17:23:37.185Z,27.50
2019-02-17T17:27:41.775Z,27.80
2019-02-17T17:31:47.401Z,28.10
2019-02-17T17:35:52.382Z,28.30
2019-02-17T17:39:57.224Z,29.00
2019-02-17T17:44:01.788Z,29.30
2019-02-17T17:48:07.815Z,29.70
2019-02-17T17:52:12.604Z,29.80
2019-02-17T17:56:17.163Z,30.30
2019-02-17T18:00:24.511Z,30.80
2019-02-17T18:04:29.076Z,31.10
2019-02-17T18:08:33.635Z,31.40
2019-02-17T18:12:38.272Z,31.60
2019-02-17T18:16:42.854Z,31.90
2019-02-17T18:20:47.628Z,32.80
2019-02-17T18:24:52.187Z,33.20
2019-02-17T18:28:57.138Z,33.40
2019-02-17T18:33:01.893Z,34.30
2019-02-17T18:37:06.748Z,34.90
2019-02-17T18:41:11.527Z,34.90
2019-02-17T18:45:16.487Z,35.10
2019-02-17T18:49:22.095Z,34.80
2019-02-17T18:53:26.661Z,35.00
2019-02-17T18:57:31.206Z,35.20
2019-02-17T19:01:36.057Z,35.30
2019-02-17T19:05:40.630Z,34.90
2019-02-17T19:09:45.547Z,35.80
2019-02-17T19:13:50.155Z,36.10
2019-02-17T19:17:54.739Z,34.00
2019-02-17T19:21:59.326Z,34.40
2019-02-17T19:26:03.948Z,34.60
2019-02-17T19:30:10.760Z,34.40
2019-02-17T19:34:15.699Z,34.90
2019-02-17T19:38:20.272Z,35.60
2019-02-17T19:42:25.042Z,36.20
2019-02-17T19:46:29.608Z,35.80
2019-02-17T19:50:35.964Z,35.40
2019-02-17T19:54:40.547Z,35.50
2019-02-17T19:58:45.158Z,35.50
2019-02-17T20:03:00.722Z,35.90
2019-02-17T20:07:05.370Z,36.20
2019-02-17T20:11:10.199Z,36.00
2019-02-17T20:15:14.775Z,36.50
2019-02-17T20:19:22.239Z,36.50
2019-02-17T20:23:26.865Z,36.80
2019-02-17T20:27:31.841Z,36.70
2019-02-17T20:31:36.644Z,36.90
2019-02-17T20:35:42.303Z,38.20
2019-02-17T20:39:47.092Z,37.40
2019-02-17T20:43:54.528Z,37.30
2019-02-17T20:47:59.183Z,37.30
2019-02-17T20:52:03.948Z,37.80
2019-02-17T20:56:08.505Z,38.00
2019-02-17T21:00:13.443Z,38.60
2019-02-17T21:04:18.089Z,38.90
2019-02-17T21:08:22.651Z,38.40
2019-02-17T21:12:27.504Z,38.90
2019-02-17T21:16:32.232Z,38.00
2019-02-17T21:20:38.055Z,38.80
2019-02-17T21:24:42.616Z,39.30
2019-02-17T21:28:47.161Z,39.00
2019-02-17T21:32:51.721Z,39.50
2019-02-17T21:36:56.652Z,39.30
2019-02-17T21:41:09.004Z,39.00
2019-02-17T21:45:09.128Z,39.50
2019-02-17T21:49:13.867Z,39.70
2019-02-17T21:53:20.709Z,39.90
2019-02-17T21:57:24.936Z,40.10
2019-02-17T22:01:29.613Z,40.10
2019-02-17T22:05:36.276Z,40.40
2019-02-17T22:09:41.115Z,40.70
2019-02-17T22:13:45.745Z,41.00
2019-02-17T22:17:50.288Z,41.00
2019-02-17T22:21:55.029Z,41.00
2019-02-17T22:25:59.906Z,41.50
2019-02-17T22:30:05.316Z,41.50
2019-02-17T22:34:10.145Z,41.20
2019-02-17T22:38:14.723Z,41.40
2019-02-17T22:42:19.551Z,41.60
2019-02-17T22:46:24.136Z,41.90
2019-02-17T22:50:28.976Z,41.80
2019-02-17T22:54:33.519Z,41.60
2019-02-17T22:58:38.091Z,41.90
2019-02-17T23:02:42.924Z,42.40
2019-02-17T23:06:53.810Z,43.20
2019-02-17T23:10:54.079Z,43.50
2019-02-17T23:14:58.620Z,43.50
2019-02-17T23:19:03.172Z,44.00
2019-02-17T23:23:07.931Z,43.70
2019-02-17T23:27:12.492Z,43.70
2019-02-17T23:31:17.336Z,43.60
2019-02-17T23:35:21.890Z,43.60
2019-02-17T23:39:26.457Z,43.40
2019-02-17T23:43:31.033Z,43.50
2019-02-17T23:47:35.592Z,44.00
2019-02-17T23:51:40.264Z,44.60
2019-02-17T23:55:44.836Z,44.60
2019-02-17T23:59:49.649Z,44.10
